sensor_id;sensor_type;location;lat;lon;timestamp;temperature;humidity
55211;DHT22;41082;52.822;6.666;2022-10-31T00:01:11;13.90;99.90
55211;DHT22;41082;52.822;6.666;2022-10-31T00:03:36;13.90;99.90
55211;DHT22;41082;52.822;6.666;2022-10-31T00:06:02;13.90;99.90
55211;DHT22;41082;52.822;6.666;2022-10-31T00:08:28;13.80;99.90
55211;DHT22;41082;52.822;6.666;2022-10-31T00:10:53;13.80;99.90
55211;DHT22;41082;52.822;6.666;2022-10-31T00:13:19;13.70;99.90
55211;DHT22;41082;52.822;6.666;2022-10-31T00:15:44;13.80;99.90
55211;DHT22;41082;52.822;6.666;2022-10-31T00:18:10;13.70;99.90
55211;DHT22;41082;52.822;6.666;2022-10-31T00:20:37;13.70;99.90
55211;DHT22;41082;52.822;6.666;2022-10-31T00:23:04;13.70;99.90
55211;DHT22;41082;52.822;6.666;2022-10-31T00:25:34;13.60;99.90
55211;DHT22;41082;52.822;6.666;2022-10-31T00:28:00;13.70;99.90
55211;DHT22;41082;52.822;6.666;2022-10-31T00:30:25;13.60;99.90
55211;DHT22;41082;52.822;6.666;2022-10-31T00:32:51;13.60;99.90
55211;DHT22;41082;52.822;6.666;2022-10-31T00:35:16;13.60;99.90
55211;DHT22;41082;52.822;6.666;2022-10-31T00:37:42;13.60;99.90
55211;DHT22;41082;52.822;6.666;2022-10-31T00:40:08;13.60;99.90
55211;DHT22;41082;52.822;6.666;2022-10-31T00:42:34;13.50;99.90
55211;DHT22;41082;52.822;6.666;2022-10-31T00:44:59;13.50;99.90
55211;DHT22;41082;52.822;6.666;2022-10-31T00:47:25;13.50;99.90
55211;DHT22;41082;52.822;6.666;2022-10-31T00:49:50;13.50;99.90
55211;DHT22;41082;52.822;6.666;2022-10-31T00:52:16;13.50;99.90
55211;DHT22;41082;52.822;6.666;2022-10-31T00:54:42;13.40;99.90
55211;DHT22;41082;52.822;6.666;2022-10-31T00:57:07;13.40;99.90
55211;DHT22;41082;52.822;6.666;2022-10-31T00:59:33;13.40;99.90
55211;DHT22;41082;52.822;6.666;2022-10-31T01:01:58;13.40;99.90
55211;DHT22;41082;52.822;6.666;2022-10-31T01:04:24;13.40;99.90
55211;DHT22;41082;52.822;6.666;2022-10-31T01:06:49;13.40;99.90
55211;DHT22;41082;52.822;6.666;2022-10-31T01:09:15;13.40;99.90
55211;DHT22;41082;52.822;6.666;2022-10-31T01:11:41;13.30;99.90
55211;DHT22;41082;52.822;6.666;2022-10-31T01:14:06;13.30;99.90
55211;DHT22;41082;52.822;6.666;2022-10-31T01:16:32;13.30;99.90
55211;DHT22;41082;52.822;6.666;2022-10-31T01:18:58;13.30;99.90
55211;DHT22;41082;52.822;6.666;2022-10-31T01:21:27;13.30;99.90
55211;DHT22;41082;52.822;6.666;2022-10-31T01:23:54;13.30;99.90
55211;DHT22;41082;52.822;6.666;2022-10-31T01:26:23;13.20;99.90
55211;DHT22;41082;52.822;6.666;2022-10-31T01:28:51;13.20;99.90
55211;DHT22;41082;52.822;6.666;2022-10-31T01:31:19;13.20;99.90
55211;DHT22;41082;52.822;6.666;2022-10-31T01:33:45;13.20;99.90
55211;DHT22;41082;52.822;6.666;2022-10-31T01:36:23;13.10;99.90
55211;DHT22;41082;52.822;6.666;2022-10-31T01:38:50;13.10;99.90
55211;DHT22;41082;52.822;6.666;2022-10-31T01:41:19;13.10;99.90
55211;DHT22;41082;52.822;6.666;2022-10-31T01:44:02;13.10;99.90
55211;DHT22;41082;52.822;6.666;2022-10-31T01:46:38;13.10;99.90
55211;DHT22;41082;52.822;6.666;2022-10-31T01:49:11;13.10;99.90
55211;DHT22;41082;52.822;6.666;2022-10-31T01:51:42;13.10;99.90
55211;DHT22;41082;52.822;6.666;2022-10-31T01:54:10;13.10;99.90
55211;DHT22;41082;52.822;6.666;2022-10-31T01:56:39;13.00;99.90
55211;DHT22;41082;52.822;6.666;2022-10-31T01:59:09;13.00;99.90
55211;DHT22;41082;52.822;6.666;2022-10-31T02:01:37;13.00;99.90
55211;DHT22;41082;52.822;6.666;2022-10-31T02:04:03;12.90;99.90
55211;DHT22;41082;52.822;6.666;2022-10-31T02:06:41;13.00;99.90
55211;DHT22;41082;52.822;6.666;2022-10-31T02:09:08;12.90;99.90
55211;DHT22;41082;52.822;6.666;2022-10-31T02:11:34;12.90;99.90
55211;DHT22;41082;52.822;6.666;2022-10-31T02:14:02;12.90;99.90
55211;DHT22;41082;52.822;6.666;2022-10-31T02:16:28;12.90;99.90
55211;DHT22;41082;52.822;6.666;2022-10-31T02:18:53;12.90;99.90
55211;DHT22;41082;52.822;6.666;2022-10-31T02:32:18;12.80;99.90
55211;DHT22;41082;52.822;6.666;2022-10-31T02:35:02;12.80;99.90
55211;DHT22;41082;52.822;6.666;2022-10-31T02:37:50;12.70;99.90
55211;DHT22;41082;52.822;6.666;2022-10-31T02:48:26;12.70;99.90
55211;DHT22;41082;52.822;6.666;2022-10-31T02:50:58;12.70;99.90
55211;DHT22;41082;52.822;6.666;2022-10-31T02:53:24;12.70;99.90
55211;DHT22;41082;52.822;6.666;2022-10-31T02:55:59;12.70;99.90
55211;DHT22;41082;52.822;6.666;2022-10-31T02:58:28;12.70;99.90
55211;DHT22;41082;52.822;6.666;2022-10-31T03:01:10;12.70;99.90
55211;DHT22;41082;52.822;6.666;2022-10-31T03:03:59;12.60;99.90
55211;DHT22;41082;52.822;6.666;2022-10-31T03:06:32;12.60;99.90
55211;DHT22;41082;52.822;6.666;2022-10-31T03:09:40;12.60;99.90
55211;DHT22;41082;52.822;6.666;2022-10-31T03:12:26;12.50;99.90
55211;DHT22;41082;52.822;6.666;2022-10-31T03:15:00;12.50;99.90
55211;DHT22;41082;52.822;6.666;2022-10-31T03:17:53;12.50;99.90
55211;DHT22;41082;52.822;6.666;2022-10-31T03:20:24;12.50;99.90
55211;DHT22;41082;52.822;6.666;2022-10-31T03:22:52;12.50;99.90
55211;DHT22;41082;52.822;6.666;2022-10-31T03:25:19;12.50;99.90
55211;DHT22;41082;52.822;6.666;2022-10-31T03:27:46;12.40;99.90
55211;DHT22;41082;52.822;6.666;2022-10-31T03:30:13;12.40;99.90
55211;DHT22;41082;52.822;6.666;2022-10-31T03:32:54;12.40;99.90
55211;DHT22;41082;52.822;6.666;2022-10-31T03:35:23;12.40;99.90
55211;DHT22;41082;52.822;6.666;2022-10-31T03:37:50;12.40;99.90
55211;DHT22;41082;52.822;6.666;2022-10-31T03:40:19;12.40;99.90
55211;DHT22;41082;52.822;6.666;2022-10-31T03:42:59;12.30;99.90
55211;DHT22;41082;52.822;6.666;2022-10-31T03:45:30;12.30;99.90
55211;DHT22;41082;52.822;6.666;2022-10-31T03:47:58;12.30;99.90
55211;DHT22;41082;52.822;6.666;2022-10-31T03:50:29;12.30;99.90
55211;DHT22;41082;52.822;6.666;2022-10-31T03:53:06;12.30;99.90
55211;DHT22;41082;52.822;6.666;2022-10-31T03:55:41;12.30;99.90
55211;DHT22;41082;52.822;6.666;2022-10-31T03:58:35;12.30;99.90
55211;DHT22;41082;52.822;6.666;2022-10-31T04:01:05;12.20;99.90
55211;DHT22;41082;52.822;6.666;2022-10-31T04:03:36;12.10;99.90
55211;DHT22;41082;52.822;6.666;2022-10-31T04:06:06;12.00;99.90
55211;DHT22;41082;52.822;6.666;2022-10-31T04:08:41;12.00;99.90
55211;DHT22;41082;52.822;6.666;2022-10-31T04:11:09;11.90;99.90
55211;DHT22;41082;52.822;6.666;2022-10-31T04:13:37;11.90;99.90
55211;DHT22;41082;52.822;6.666;2022-10-31T04:16:04;11.90;99.90
55211;DHT22;41082;52.822;6.666;2022-10-31T04:18:30;11.80;99.90
55211;DHT22;41082;52.822;6.666;2022-10-31T04:21:01;11.80;99.90
55211;DHT22;41082;52.822;6.666;2022-10-31T04:23:27;11.70;99.90
55211;DHT22;41082;52.822;6.666;2022-10-31T04:25:52;11.70;99.90
55211;DHT22;41082;52.822;6.666;2022-10-31T04:28:18;11.70;99.90
55211;DHT22;41082;52.822;6.666;2022-10-31T04:30:44;11.60;99.90
55211;DHT22;41082;52.822;6.666;2022-10-31T04:33:09;11.60;99.90
55211;DHT22;41082;52.822;6.666;2022-10-31T04:35:35;11.60;99.90
55211;DHT22;41082;52.822;6.666;2022-10-31T04:38:01;11.60;99.90
55211;DHT22;41082;52.822;6.666;2022-10-31T04:40:26;11.50;99.90
55211;DHT22;41082;52.822;6.666;2022-10-31T04:42:52;11.50;99.90
55211;DHT22;41082;52.822;6.666;2022-10-31T04:45:17;11.40;99.90
55211;DHT22;41082;52.822;6.666;2022-10-31T04:47:43;11.40;99.90
55211;DHT22;41082;52.822;6.666;2022-10-31T04:50:09;11.30;99.90
55211;DHT22;41082;52.822;6.666;2022-10-31T04:52:41;11.30;99.90
55211;DHT22;41082;52.822;6.666;2022-10-31T04:55:08;11.20;99.90
55211;DHT22;41082;52.822;6.666;2022-10-31T04:57:43;11.20;99.90
55211;DHT22;41082;52.822;6.666;2022-10-31T05:00:11;11.10;99.90
55211;DHT22;41082;52.822;6.666;2022-10-31T05:02:56;11.10;99.90
55211;DHT22;41082;52.822;6.666;2022-10-31T05:05:27;11.00;99.90
55211;DHT22;41082;52.822;6.666;2022-10-31T05:07:53;11.00;99.90
55211;DHT22;41082;52.822;6.666;2022-10-31T05:10:25;10.90;99.90
55211;DHT22;41082;52.822;6.666;2022-10-31T05:12:55;10.90;99.90
55211;DHT22;41082;52.822;6.666;2022-10-31T05:15:23;10.90;99.90
55211;DHT22;41082;52.822;6.666;2022-10-31T05:17:49;10.90;99.90
55211;DHT22;41082;52.822;6.666;2022-10-31T05:20:17;10.80;99.90
55211;DHT22;41082;52.822;6.666;2022-10-31T05:22:44;10.80;99.90
55211;DHT22;41082;52.822;6.666;2022-10-31T05:25:10;10.80;99.90
55211;DHT22;41082;52.822;6.666;2022-10-31T05:27:42;10.70;99.90
55211;DHT22;41082;52.822;6.666;2022-10-31T05:30:09;10.70;99.90
55211;DHT22;41082;52.822;6.666;2022-10-31T05:32:39;10.70;99.90
55211;DHT22;41082;52.822;6.666;2022-10-31T05:35:06;10.70;99.90
55211;DHT22;41082;52.822;6.666;2022-10-31T05:37:36;10.60;99.90
55211;DHT22;41082;52.822;6.666;2022-10-31T05:40:07;10.60;99.90
55211;DHT22;41082;52.822;6.666;2022-10-31T05:42:34;10.60;99.90
55211;DHT22;41082;52.822;6.666;2022-10-31T05:44:59;10.50;99.90
55211;DHT22;41082;52.822;6.666;2022-10-31T05:47:25;10.50;99.90
55211;DHT22;41082;52.822;6.666;2022-10-31T05:49:51;10.50;99.90
55211;DHT22;41082;52.822;6.666;2022-10-31T05:52:17;10.40;99.90
55211;DHT22;41082;52.822;6.666;2022-10-31T05:54:42;10.40;99.90
55211;DHT22;41082;52.822;6.666;2022-10-31T05:57:08;10.40;99.90
55211;DHT22;41082;52.822;6.666;2022-10-31T05:59:33;10.40;99.90
55211;DHT22;41082;52.822;6.666;2022-10-31T06:01:59;10.40;99.90
55211;DHT22;41082;52.822;6.666;2022-10-31T06:04:24;10.30;99.90
55211;DHT22;41082;52.822;6.666;2022-10-31T06:06:50;10.30;99.90
55211;DHT22;41082;52.822;6.666;2022-10-31T06:09:15;10.30;99.90
55211;DHT22;41082;52.822;6.666;2022-10-31T06:11:41;10.20;99.90
55211;DHT22;41082;52.822;6.666;2022-10-31T06:14:06;10.20;99.90
55211;DHT22;41082;52.822;6.666;2022-10-31T06:16:32;10.10;99.90
55211;DHT22;41082;52.822;6.666;2022-10-31T06:18:58;10.10;99.90
55211;DHT22;41082;52.822;6.666;2022-10-31T06:21:24;10.10;99.90
55211;DHT22;41082;52.822;6.666;2022-10-31T06:23:49;10.10;99.90
55211;DHT22;41082;52.822;6.666;2022-10-31T06:26:15;10.10;99.90
55211;DHT22;41082;52.822;6.666;2022-10-31T06:28:41;10.10;99.90
55211;DHT22;41082;52.822;6.666;2022-10-31T06:31:06;10.10;99.90
55211;DHT22;41082;52.822;6.666;2022-10-31T06:33:33;10.10;99.90
55211;DHT22;41082;52.822;6.666;2022-10-31T06:35:59;10.10;99.90
55211;DHT22;41082;52.822;6.666;2022-10-31T06:38:28;10.10;99.90
55211;DHT22;41082;52.822;6.666;2022-10-31T06:40:54;10.10;99.90
55211;DHT22;41082;52.822;6.666;2022-10-31T06:43:20;10.10;99.90
55211;DHT22;41082;52.822;6.666;2022-10-31T06:45:47;10.10;99.90
55211;DHT22;41082;52.822;6.666;2022-10-31T06:48:12;10.10;99.90
55211;DHT22;41082;52.822;6.666;2022-10-31T06:50:38;10.10;99.90
55211;DHT22;41082;52.822;6.666;2022-10-31T06:53:04;10.10;99.90
55211;DHT22;41082;52.822;6.666;2022-10-31T06:55:30;10.00;99.90
55211;DHT22;41082;52.822;6.666;2022-10-31T06:57:59;10.00;99.90
55211;DHT22;41082;52.822;6.666;2022-10-31T07:00:27;10.00;99.90
55211;DHT22;41082;52.822;6.666;2022-10-31T07:03:05;10.00;99.90
55211;DHT22;41082;52.822;6.666;2022-10-31T07:05:31;10.00;99.90
55211;DHT22;41082;52.822;6.666;2022-10-31T07:08:02;10.00;99.90
55211;DHT22;41082;52.822;6.666;2022-10-31T07:10:30;10.00;99.90
55211;DHT22;41082;52.822;6.666;2022-10-31T07:12:57;10.00;99.90
55211;DHT22;41082;52.822;6.666;2022-10-31T07:15:27;10.00;99.90
55211;DHT22;41082;52.822;6.666;2022-10-31T07:17:53;9.90;99.90
55211;DHT22;41082;52.822;6.666;2022-10-31T07:20:19;9.90;99.90
55211;DHT22;41082;52.822;6.666;2022-10-31T07:22:44;9.90;99.90
55211;DHT22;41082;52.822;6.666;2022-10-31T07:25:10;9.90;99.90
55211;DHT22;41082;52.822;6.666;2022-10-31T07:27:40;9.90;99.90
55211;DHT22;41082;52.822;6.666;2022-10-31T07:30:07;9.90;99.90
55211;DHT22;41082;52.822;6.666;2022-10-31T07:32:47;9.90;99.90
55211;DHT22;41082;52.822;6.666;2022-10-31T07:35:15;10.00;99.90
55211;DHT22;41082;52.822;6.666;2022-10-31T07:37:41;10.00;99.90
55211;DHT22;41082;52.822;6.666;2022-10-31T07:40:08;10.00;99.90
55211;DHT22;41082;52.822;6.666;2022-10-31T07:42:41;10.00;99.90
55211;DHT22;41082;52.822;6.666;2022-10-31T07:45:09;10.10;99.90
55211;DHT22;41082;52.822;6.666;2022-10-31T07:47:49;10.10;99.90
55211;DHT22;41082;52.822;6.666;2022-10-31T07:50:24;10.10;99.90
55211;DHT22;41082;52.822;6.666;2022-10-31T07:53:04;10.10;99.90
55211;DHT22;41082;52.822;6.666;2022-10-31T07:55:30;10.20;99.90
55211;DHT22;41082;52.822;6.666;2022-10-31T07:58:00;10.20;99.90
55211;DHT22;41082;52.822;6.666;2022-10-31T08:00:27;10.20;99.90
55211;DHT22;41082;52.822;6.666;2022-10-31T08:03:00;10.30;99.90
55211;DHT22;41082;52.822;6.666;2022-10-31T08:05:26;10.30;99.90
55211;DHT22;41082;52.822;6.666;2022-10-31T08:07:52;10.40;99.90
55211;DHT22;41082;52.822;6.666;2022-10-31T08:10:18;10.40;99.90
55211;DHT22;41082;52.822;6.666;2022-10-31T08:12:44;10.40;99.90
55211;DHT22;41082;52.822;6.666;2022-10-31T08:15:09;10.50;99.90
55211;DHT22;41082;52.822;6.666;2022-10-31T08:17:36;10.60;99.90
55211;DHT22;41082;52.822;6.666;2022-10-31T08:20:02;10.70;99.90
55211;DHT22;41082;52.822;6.666;2022-10-31T08:22:28;10.70;99.90
55211;DHT22;41082;52.822;6.666;2022-10-31T08:24:54;10.80;99.90
55211;DHT22;41082;52.822;6.666;2022-10-31T08:27:19;10.90;99.90
55211;DHT22;41082;52.822;6.666;2022-10-31T08:29:45;11.00;99.90
55211;DHT22;41082;52.822;6.666;2022-10-31T08:32:10;11.00;99.90
55211;DHT22;41082;52.822;6.666;2022-10-31T08:34:36;11.10;99.90
55211;DHT22;41082;52.822;6.666;2022-10-31T08:37:01;11.20;99.90
55211;DHT22;41082;52.822;6.666;2022-10-31T08:39:27;11.30;99.90
55211;DHT22;41082;52.822;6.666;2022-10-31T08:41:52;11.40;99.90
55211;DHT22;41082;52.822;6.666;2022-10-31T08:44:18;11.50;99.90
55211;DHT22;41082;52.822;6.666;2022-10-31T08:46:44;11.50;99.90
55211;DHT22;41082;52.822;6.666;2022-10-31T08:49:09;11.50;99.90
55211;DHT22;41082;52.822;6.666;2022-10-31T08:51:35;11.60;99.90
55211;DHT22;41082;52.822;6.666;2022-10-31T08:54:00;11.70;99.90
55211;DHT22;41082;52.822;6.666;2022-10-31T08:56:26;11.70;99.90
55211;DHT22;41082;52.822;6.666;2022-10-31T08:58:53;11.70;99.90
55211;DHT22;41082;52.822;6.666;2022-10-31T09:01:18;11.80;99.90
55211;DHT22;41082;52.822;6.666;2022-10-31T09:03:44;11.80;99.90
55211;DHT22;41082;52.822;6.666;2022-10-31T09:06:10;11.80;99.90
55211;DHT22;41082;52.822;6.666;2022-10-31T09:08:36;11.80;99.90
55211;DHT22;41082;52.822;6.666;2022-10-31T09:11:02;11.90;99.90
55211;DHT22;41082;52.822;6.666;2022-10-31T09:13:28;11.90;99.90
55211;DHT22;41082;52.822;6.666;2022-10-31T09:15:56;12.00;99.90
55211;DHT22;41082;52.822;6.666;2022-10-31T09:18:22;12.00;99.90
55211;DHT22;41082;52.822;6.666;2022-10-31T09:20:49;12.10;99.90
55211;DHT22;41082;52.822;6.666;2022-10-31T09:23:17;12.10;99.90
55211;DHT22;41082;52.822;6.666;2022-10-31T09:25:44;12.10;99.90
55211;DHT22;41082;52.822;6.666;2022-10-31T09:28:12;12.20;99.90
55211;DHT22;41082;52.822;6.666;2022-10-31T09:30:37;12.20;99.90
55211;DHT22;41082;52.822;6.666;2022-10-31T09:33:05;12.20;99.90
55211;DHT22;41082;52.822;6.666;2022-10-31T09:35:31;12.30;99.90
55211;DHT22;41082;52.822;6.666;2022-10-31T09:37:59;12.30;99.90
55211;DHT22;41082;52.822;6.666;2022-10-31T09:40:34;12.40;99.90
55211;DHT22;41082;52.822;6.666;2022-10-31T09:43:11;12.40;99.90
55211;DHT22;41082;52.822;6.666;2022-10-31T09:45:40;12.50;99.90
55211;DHT22;41082;52.822;6.666;2022-10-31T09:50:58;12.60;99.90
55211;DHT22;41082;52.822;6.666;2022-10-31T09:53:41;12.70;99.90
55211;DHT22;41082;52.822;6.666;2022-10-31T09:56:12;12.80;99.90
55211;DHT22;41082;52.822;6.666;2022-10-31T09:58:43;12.80;99.90
55211;DHT22;41082;52.822;6.666;2022-10-31T10:06:53;13.00;99.90
55211;DHT22;41082;52.822;6.666;2022-10-31T10:09:24;13.00;99.90
55211;DHT22;41082;52.822;6.666;2022-10-31T10:17:22;13.20;99.90
55211;DHT22;41082;52.822;6.666;2022-10-31T10:20:05;13.30;99.90
55211;DHT22;41082;52.822;6.666;2022-10-31T10:22:44;13.40;99.90
55211;DHT22;41082;52.822;6.666;2022-10-31T10:25:15;13.50;99.90
55211;DHT22;41082;52.822;6.666;2022-10-31T10:27:49;13.60;99.90
55211;DHT22;41082;52.822;6.666;2022-10-31T10:30:18;13.70;99.90
55211;DHT22;41082;52.822;6.666;2022-10-31T10:32:49;13.80;99.90
55211;DHT22;41082;52.822;6.666;2022-10-31T10:35:34;13.90;99.90
55211;DHT22;41082;52.822;6.666;2022-10-31T10:38:14;14.00;99.90
55211;DHT22;41082;52.822;6.666;2022-10-31T10:40:41;14.00;99.90
55211;DHT22;41082;52.822;6.666;2022-10-31T10:43:35;14.10;99.90
55211;DHT22;41082;52.822;6.666;2022-10-31T10:55:03;14.40;99.90
55211;DHT22;41082;52.822;6.666;2022-10-31T11:00:42;14.50;99.90
55211;DHT22;41082;52.822;6.666;2022-10-31T11:03:11;14.50;99.90
55211;DHT22;41082;52.822;6.666;2022-10-31T11:05:52;14.50;99.90
55211;DHT22;41082;52.822;6.666;2022-10-31T11:13:24;14.70;99.90
55211;DHT22;41082;52.822;6.666;2022-10-31T11:16:08;14.80;99.90
55211;DHT22;41082;52.822;6.666;2022-10-31T11:18:37;14.80;99.90
55211;DHT22;41082;52.822;6.666;2022-10-31T11:21:04;14.80;99.90
55211;DHT22;41082;52.822;6.666;2022-10-31T11:23:31;14.90;99.90
55211;DHT22;41082;52.822;6.666;2022-10-31T11:26:02;14.90;99.90
55211;DHT22;41082;52.822;6.666;2022-10-31T11:28:30;14.90;99.90
55211;DHT22;41082;52.822;6.666;2022-10-31T11:31:08;15.00;99.90
55211;DHT22;41082;52.822;6.666;2022-10-31T11:33:47;15.00;99.90
55211;DHT22;41082;52.822;6.666;2022-10-31T11:36:23;15.10;99.90
55211;DHT22;41082;52.822;6.666;2022-10-31T11:38:49;15.10;99.90
55211;DHT22;41082;52.822;6.666;2022-10-31T11:41:32;15.10;99.90
55211;DHT22;41082;52.822;6.666;2022-10-31T11:44:04;15.20;99.90
55211;DHT22;41082;52.822;6.666;2022-10-31T11:46:44;15.20;99.90
55211;DHT22;41082;52.822;6.666;2022-10-31T11:49:39;15.30;99.90
55211;DHT22;41082;52.822;6.666;2022-10-31T11:57:29;15.50;99.90
55211;DHT22;41082;52.822;6.666;2022-10-31T11:59:57;15.50;99.90
55211;DHT22;41082;52.822;6.666;2022-10-31T12:02:23;15.60;99.90
55211;DHT22;41082;52.822;6.666;2022-10-31T12:05:17;15.60;99.90
55211;DHT22;41082;52.822;6.666;2022-10-31T12:07:43;15.60;99.90
55211;DHT22;41082;52.822;6.666;2022-10-31T12:10:10;15.70;99.90
55211;DHT22;41082;52.822;6.666;2022-10-31T12:13:16;15.70;99.90
55211;DHT22;41082;52.822;6.666;2022-10-31T12:15:53;15.70;99.90
55211;DHT22;41082;52.822;6.666;2022-10-31T12:21:04;15.80;99.90
55211;DHT22;41082;52.822;6.666;2022-10-31T12:24:05;15.80;99.90
55211;DHT22;41082;52.822;6.666;2022-10-31T12:32:01;15.90;99.90
55211;DHT22;41082;52.822;6.666;2022-10-31T12:35:04;15.90;99.90
55211;DHT22;41082;52.822;6.666;2022-10-31T12:54:15;16.10;99.90
55211;DHT22;41082;52.822;6.666;2022-10-31T12:59:48;16.10;99.90
55211;DHT22;41082;52.822;6.666;2022-10-31T13:02:24;16.20;99.90
55211;DHT22;41082;52.822;6.666;2022-10-31T13:04:57;16.20;99.90
55211;DHT22;41082;52.822;6.666;2022-10-31T13:07:38;16.30;99.90
55211;DHT22;41082;52.822;6.666;2022-10-31T13:10:16;16.40;99.90
55211;DHT22;41082;52.822;6.666;2022-10-31T13:12:44;16.40;99.90
55211;DHT22;41082;52.822;6.666;2022-10-31T13:15:32;16.40;99.90
55211;DHT22;41082;52.822;6.666;2022-10-31T13:18:06;16.50;99.90
55211;DHT22;41082;52.822;6.666;2022-10-31T13:20:42;16.50;99.90
55211;DHT22;41082;52.822;6.666;2022-10-31T13:23:27;16.50;99.90
55211;DHT22;41082;52.822;6.666;2022-10-31T13:25:55;16.50;99.90
55211;DHT22;41082;52.822;6.666;2022-10-31T13:28:43;16.50;99.90
55211;DHT22;41082;52.822;6.666;2022-10-31T13:31:10;16.60;99.90
55211;DHT22;41082;52.822;6.666;2022-10-31T13:33:46;16.60;99.90
55211;DHT22;41082;52.822;6.666;2022-10-31T13:42:11;16.60;99.90
55211;DHT22;41082;52.822;6.666;2022-10-31T13:44:30;16.60;99.90
55211;DHT22;41082;52.822;6.666;2022-10-31T13:46:57;16.60;99.90
55211;DHT22;41082;52.822;6.666;2022-10-31T13:49:24;16.60;99.90
55211;DHT22;41082;52.822;6.666;2022-10-31T13:51:50;16.60;99.90
55211;DHT22;41082;52.822;6.666;2022-10-31T13:54:33;16.70;99.90
55211;DHT22;41082;52.822;6.666;2022-10-31T13:56:59;16.70;99.90
55211;DHT22;41082;52.822;6.666;2022-10-31T13:59:30;16.60;99.90
55211;DHT22;41082;52.822;6.666;2022-10-31T14:02:00;16.70;99.90
55211;DHT22;41082;52.822;6.666;2022-10-31T14:04:36;16.60;99.90
55211;DHT22;41082;52.822;6.666;2022-10-31T14:07:10;16.60;99.90
55211;DHT22;41082;52.822;6.666;2022-10-31T14:09:39;16.60;99.90
55211;DHT22;41082;52.822;6.666;2022-10-31T14:12:43;16.60;99.90
55211;DHT22;41082;52.822;6.666;2022-10-31T14:15:13;16.60;99.90
55211;DHT22;41082;52.822;6.666;2022-10-31T14:18:00;16.50;99.90
55211;DHT22;41082;52.822;6.666;2022-10-31T14:20:43;16.50;99.90
55211;DHT22;41082;52.822;6.666;2022-10-31T14:25:52;16.50;99.90
55211;DHT22;41082;52.822;6.666;2022-10-31T14:28:21;16.50;99.90
55211;DHT22;41082;52.822;6.666;2022-10-31T14:30:55;16.50;99.90
55211;DHT22;41082;52.822;6.666;2022-10-31T14:33:25;16.50;99.90
55211;DHT22;41082;52.822;6.666;2022-10-31T14:46:58;16.30;99.90
55211;DHT22;41082;52.822;6.666;2022-10-31T14:51:55;16.30;99.90
55211;DHT22;41082;52.822;6.666;2022-10-31T14:54:33;16.30;99.90
55211;DHT22;41082;52.822;6.666;2022-10-31T14:57:27;16.30;99.90
55211;DHT22;41082;52.822;6.666;2022-10-31T14:59:56;16.20;99.90
55211;DHT22;41082;52.822;6.666;2022-10-31T15:02:34;16.20;99.90
55211;DHT22;41082;52.822;6.666;2022-10-31T15:05:10;16.20;99.90
55211;DHT22;41082;52.822;6.666;2022-10-31T15:07:36;16.10;99.90
55211;DHT22;41082;52.822;6.666;2022-10-31T15:10:18;16.00;99.90
55211;DHT22;41082;52.822;6.666;2022-10-31T15:12:44;16.00;99.90
55211;DHT22;41082;52.822;6.666;2022-10-31T15:17:47;16.00;99.90
55211;DHT22;41082;52.822;6.666;2022-10-31T15:20:22;15.90;99.90
55211;DHT22;41082;52.822;6.666;2022-10-31T15:22:49;15.90;99.90
55211;DHT22;41082;52.822;6.666;2022-10-31T15:25:18;15.90;99.90
55211;DHT22;41082;52.822;6.666;2022-10-31T15:27:45;15.80;99.90
55211;DHT22;41082;52.822;6.666;2022-10-31T15:30:22;15.80;99.90
55211;DHT22;41082;52.822;6.666;2022-10-31T15:32:48;15.80;99.90
55211;DHT22;41082;52.822;6.666;2022-10-31T15:37:52;15.70;99.90
55211;DHT22;41082;52.822;6.666;2022-10-31T15:40:20;15.60;99.90
55211;DHT22;41082;52.822;6.666;2022-10-31T15:43:00;15.60;99.90
55211;DHT22;41082;52.822;6.666;2022-10-31T15:45:27;15.50;99.90
55211;DHT22;41082;52.822;6.666;2022-10-31T15:47:56;15.50;99.90
55211;DHT22;41082;52.822;6.666;2022-10-31T15:52:59;15.40;99.90
55211;DHT22;41082;52.822;6.666;2022-10-31T15:55:27;15.30;99.90
55211;DHT22;41082;52.822;6.666;2022-10-31T15:58:00;15.30;99.90
55211;DHT22;41082;52.822;6.666;2022-10-31T16:00:36;15.20;99.90
55211;DHT22;41082;52.822;6.666;2022-10-31T16:05:50;15.00;99.90
55211;DHT22;41082;52.822;6.666;2022-10-31T16:10:57;14.90;99.90
55211;DHT22;41082;52.822;6.666;2022-10-31T16:13:30;14.90;99.90
55211;DHT22;41082;52.822;6.666;2022-10-31T16:16:13;14.80;99.90
55211;DHT22;41082;52.822;6.666;2022-10-31T16:18:41;14.80;99.90
55211;DHT22;41082;52.822;6.666;2022-10-31T16:21:08;14.70;99.90
55211;DHT22;41082;52.822;6.666;2022-10-31T16:23:34;14.70;99.90
55211;DHT22;41082;52.822;6.666;2022-10-31T16:26:06;14.60;99.90
55211;DHT22;41082;52.822;6.666;2022-10-31T16:28:32;14.60;99.90
55211;DHT22;41082;52.822;6.666;2022-10-31T16:30:58;14.60;99.90
55211;DHT22;41082;52.822;6.666;2022-10-31T16:33:31;14.50;99.90
55211;DHT22;41082;52.822;6.666;2022-10-31T16:35:59;14.50;99.90
55211;DHT22;41082;52.822;6.666;2022-10-31T16:38:26;14.40;99.90
55211;DHT22;41082;52.822;6.666;2022-10-31T16:40:52;14.50;99.90
55211;DHT22;41082;52.822;6.666;2022-10-31T16:43:18;14.40;99.90
55211;DHT22;41082;52.822;6.666;2022-10-31T16:45:51;14.40;99.90
55211;DHT22;41082;52.822;6.666;2022-10-31T16:48:20;14.30;99.90
55211;DHT22;41082;52.822;6.666;2022-10-31T16:50:48;14.30;99.90
55211;DHT22;41082;52.822;6.666;2022-10-31T16:53:15;14.30;99.90
55211;DHT22;41082;52.822;6.666;2022-10-31T16:55:46;14.30;99.90
55211;DHT22;41082;52.822;6.666;2022-10-31T16:58:23;14.30;99.90
55211;DHT22;41082;52.822;6.666;2022-10-31T17:00:50;14.30;99.90
55211;DHT22;41082;52.822;6.666;2022-10-31T17:03:16;14.30;99.90
55211;DHT22;41082;52.822;6.666;2022-10-31T17:05:41;14.30;99.90
55211;DHT22;41082;52.822;6.666;2022-10-31T17:08:07;14.30;99.90
55211;DHT22;41082;52.822;6.666;2022-10-31T17:10:34;14.30;99.90
55211;DHT22;41082;52.822;6.666;2022-10-31T17:13:00;14.30;99.90
55211;DHT22;41082;52.822;6.666;2022-10-31T17:15:37;14.20;99.90
55211;DHT22;41082;52.822;6.666;2022-10-31T17:18:03;14.30;99.90
55211;DHT22;41082;52.822;6.666;2022-10-31T17:20:30;14.30;99.90
55211;DHT22;41082;52.822;6.666;2022-10-31T17:22:57;14.30;99.90
55211;DHT22;41082;52.822;6.666;2022-10-31T17:25:28;14.30;99.90
55211;DHT22;41082;52.822;6.666;2022-10-31T17:27:54;14.30;99.90
55211;DHT22;41082;52.822;6.666;2022-10-31T17:30:20;14.20;99.90
55211;DHT22;41082;52.822;6.666;2022-10-31T17:32:47;14.20;99.90
55211;DHT22;41082;52.822;6.666;2022-10-31T17:35:14;14.20;99.90
55211;DHT22;41082;52.822;6.666;2022-10-31T17:37:41;14.30;99.90
55211;DHT22;41082;52.822;6.666;2022-10-31T17:40:08;14.20;99.90
55211;DHT22;41082;52.822;6.666;2022-10-31T17:42:34;14.20;99.90
55211;DHT22;41082;52.822;6.666;2022-10-31T17:45:00;14.30;99.90
55211;DHT22;41082;52.822;6.666;2022-10-31T17:47:25;14.30;99.90